Time;durP1;ratioP1;P1;durP2;ratioP2;P2;SDS_P1;SDS_P2;PMS_P1;PMS_P2;Temp;Humidity;BMP_temperature;BMP_pressure;BME280_temperature;BME280_humidity;BME280_pressure;Samples;Min_cycle;Max_cycle;Signal;HPM_P1;HPM_P2
2021/03/01 00:01:17;;;;;;;99.82;55.80;;;179.20;1638.40;;;;;;5013458;28;20536;-73
2021/03/01 00:03:43;;;;;;;96.78;53.10;;;179.40;1638.40;;;;;;5011737;28;20495;-74
2021/03/01 00:06:09;;;;;;;92.38;53.08;;;179.30;1638.40;;;;;;5012162;28;20087;-74
2021/03/01 00:08:34;;;;;;;90.25;52.13;;;179.30;1612.80;;;;;;5011860;28;20066;-74
2021/03/01 00:11:00;;;;;;;90.22;50.88;;;179.30;1638.40;;;;;;5013190;28;20030;-74
2021/03/01 00:13:26;;;;;;;87.18;50.63;;;179.40;1612.80;;;;;;5012526;28;20034;-74
2021/03/01 00:15:52;;;;;;;85.78;49.83;;;179.40;1612.80;;;;;;5013341;28;20033;-75
2021/03/01 00:18:18;;;;;;;81.43;48.83;;;179.40;1612.80;;;;;;5012887;28;20030;-74
2021/03/01 00:20:44;;;;;;;85.47;48.88;;;179.40;1612.80;;;;;;5013423;28;20055;-75
2021/03/01 00:23:10;;;;;;;79.00;45.42;;;179.40;1612.80;;;;;;5013367;28;20061;-73
2021/03/01 00:25:41;;;;;;;76.85;45.45;;;179.40;1587.20;;;;;;5011103;28;20029;-74
2021/03/01 00:28:08;;;;;;;69.53;42.95;;;179.40;1612.80;;;;;;5013037;28;20387;-73
2021/03/01 00:30:34;;;;;;;78.65;45.38;;;179.40;1587.20;;;;;;5013088;28;20018;-73
2021/03/01 00:33:00;;;;;;;78.22;45.13;;;179.40;1587.20;;;;;;5013201;28;20026;-75
2021/03/01 00:35:26;;;;;;;77.88;44.05;;;179.40;1587.20;;;;;;5013073;28;20037;-73
2021/03/01 00:37:51;;;;;;;73.07;45.08;;;179.30;1587.20;;;;;;5011789;28;20026;-73
2021/03/01 00:40:18;;;;;;;73.95;43.22;;;179.40;1612.80;;;;;;5012601;28;20022;-74
2021/03/01 00:42:44;;;;;;;69.97;42.45;;;179.40;1587.20;;;;;;5012704;28;20089;-74
2021/03/01 00:45:10;;;;;;;74.75;42.25;;;179.30;1587.20;;;;;;5011669;28;20029;-74
2021/03/01 00:47:36;;;;;;;71.25;42.30;;;179.90;1587.20;;;;;;5012816;28;20029;-73
2021/03/01 00:50:03;;;;;;;65.68;39.75;;;179.30;1612.80;;;;;;5012782;28;20030;-73
2021/03/01 00:52:28;;;;;;;69.40;41.38;;;179.30;1587.20;;;;;;5010784;28;20062;-74
2021/03/01 00:54:54;;;;;;;67.10;41.05;;;179.30;1612.80;;;;;;5012411;28;20119;-74
2021/03/01 00:57:20;;;;;;;69.15;39.65;;;179.40;1612.80;;;;;;5013158;28;20072;-74
2021/03/01 00:59:45;;;;;;;67.20;39.70;;;179.30;1587.20;;;;;;5012689;28;20030;-74
2021/03/01 01:02:11;;;;;;;63.22;40.13;;;179.40;1587.20;;;;;;5012307;28;20037;-74
2021/03/01 01:04:37;;;;;;;62.80;39.53;;;179.50;1612.80;;;;;;5012273;28;20022;-74
2021/03/01 01:07:03;;;;;;;64.75;40.08;;;179.50;1612.80;;;;;;5011425;28;20029;-73
2021/03/01 01:09:28;;;;;;;64.55;38.25;;;179.50;1587.20;;;;;;5013196;28;20033;-74
2021/03/01 01:11:54;;;;;;;61.78;37.50;;;179.40;1587.20;;;;;;5012933;28;20032;-75
2021/03/01 01:14:20;;;;;;;60.47;38.03;;;179.40;1587.20;;;;;;5011681;28;20046;-74
2021/03/01 01:16:45;;;;;;;66.95;39.20;;;179.50;1612.80;;;;;;5012666;28;20025;-73
2021/03/01 01:19:11;;;;;;;65.93;39.22;;;179.50;1612.80;;;;;;5013131;28;20376;-75
2021/03/01 01:21:37;;;;;;;61.92;37.97;;;179.50;1638.40;;;;;;5012606;28;20022;-73
2021/03/01 01:24:03;;;;;;;59.15;36.55;;;179.50;1612.80;;;;;;5010756;28;20057;-74
2021/03/01 01:26:29;;;;;;;61.63;36.97;;;179.50;1612.80;;;;;;5012989;28;20022;-74
2021/03/01 01:28:55;;;;;;;57.90;36.97;;;179.50;1638.40;;;;;;5010276;28;20038;-74
2021/03/01 01:31:21;;;;;;;61.25;36.72;;;179.50;1638.40;;;;;;5012428;28;20026;-73
2021/03/01 01:33:46;;;;;;;57.63;35.38;;;179.50;1612.80;;;;;;5012066;28;20026;-74
2021/03/01 01:36:12;;;;;;;62.38;36.47;;;179.40;1612.80;;;;;;5012952;28;20030;-74
2021/03/01 01:38:38;;;;;;;59.47;37.08;;;179.40;1612.80;;;;;;5011173;28;20036;-75
2021/03/01 01:41:03;;;;;;;58.58;36.05;;;179.30;1612.80;;;;;;5012463;28;20041;-74
2021/03/01 01:43:29;;;;;;;60.45;38.08;;;179.30;1638.40;;;;;;5012541;28;20030;-74
2021/03/01 01:45:55;;;;;;;60.42;37.60;;;179.30;1638.40;;;;;;5010338;28;20168;-75
2021/03/01 01:48:20;;;;;;;66.82;38.00;;;179.20;1612.80;;;;;;5012053;28;20033;-74
2021/03/01 01:50:46;;;;;;;59.17;37.38;;;154.50;1638.40;;;;;;5011606;28;20033;-75
2021/03/01 01:53:12;;;;;;;58.70;37.10;;;154.50;1638.40;;;;;;5011639;28;20026;-74
2021/03/01 01:55:38;;;;;;;59.95;38.55;;;154.40;1638.40;;;;;;5011350;28;20480;-73
2021/03/01 01:58:04;;;;;;;68.68;39.40;;;154.30;1664.00;;;;;;5011215;28;20403;-75
2021/03/01 02:00:45;;;;;;;78.78;47.58;;;154.20;1664.00;;;;;;5011491;28;20022;-74
2021/03/01 02:03:16;;;;;;;98.32;56.35;;;154.10;1664.00;;;;;;5011269;28;20396;-74
2021/03/01 02:05:42;;;;;;;85.72;51.20;;;154.10;1689.60;;;;;;5011316;28;20380;-73
2021/03/01 02:08:15;;;;;;;89.82;53.60;;;154.00;1689.60;;;;;;5009806;28;20037;-74
2021/03/01 02:10:53;;;;;;;83.18;47.83;;;154.00;1689.60;;;;;;5011169;28;20169;-76
2021/03/01 02:13:35;;;;;;;74.90;43.63;;;153.90;1715.20;;;;;;5010924;28;20040;-74
2021/03/01 02:16:23;;;;;;;79.15;45.35;;;153.70;1715.20;;;;;;5011156;28;20033;-78
2021/03/01 02:18:49;;;;;;;79.45;48.60;;;153.70;1689.60;;;;;;5006533;28;20083;-75
2021/03/01 02:21:15;;;;;;;78.80;45.60;;;153.70;1689.60;;;;;;5009504;28;20113;-74
2021/03/01 02:23:42;;;;;;;79.38;48.15;;;153.60;1689.60;;;;;;5009754;28;20036;-74
2021/03/01 02:26:40;;;;;;;78.95;45.70;;;153.60;1689.60;;;;;;5010790;28;20570;-75
2021/03/01 02:29:08;;;;;;;80.32;45.95;;;128.90;1689.60;;;;;;4969527;28;20041;-74
2021/03/01 02:31:38;;;;;;;74.13;45.03;;;128.80;1715.20;;;;;;4953350;28;20041;-74
2021/03/01 02:34:05;;;;;;;77.38;45.35;;;128.70;1715.20;;;;;;4969336;28;20070;-74
2021/03/01 02:36:44;;;;;;;76.28;46.03;;;128.70;1715.20;;;;;;4969691;28;20495;-74
2021/03/01 02:39:10;;;;;;;91.88;53.08;;;128.60;1715.20;;;;;;4953494;28;20421;-73
2021/03/01 02:41:38;;;;;;;89.60;51.53;;;128.50;1740.80;;;;;;4969273;28;20031;-74
2021/03/01 02:44:05;;;;;;;79.30;46.92;;;128.50;1766.40;;;;;;4953261;28;20039;-73
2021/03/01 02:46:31;;;;;;;83.85;47.85;;;128.40;1766.40;;;;;;4969557;28;20039;-74
2021/03/01 02:48:59;;;;;;;80.30;47.83;;;128.40;1766.40;;;;;;4969695;28;20035;-73
2021/03/01 02:51:26;;;;;;;81.18;46.75;;;128.30;1766.40;;;;;;4957051;28;20100;-74
2021/03/01 02:53:53;;;;;;;81.10;47.45;;;128.30;1792.00;;;;;;4957244;28;20046;-74
2021/03/01 02:56:20;;;;;;;85.10;48.70;;;128.20;1792.00;;;;;;4973379;28;20023;-74
2021/03/01 02:58:49;;;;;;;85.70;49.65;;;128.30;1817.60;;;;;;4973160;28;20038;-74
2021/03/01 03:01:17;;;;;;;91.07;51.03;;;128.10;1817.60;;;;;;4956889;28;20034;-74
2021/03/01 03:03:46;;;;;;;90.50;50.63;;;128.10;1817.60;;;;;;4957156;28;20552;-73
2021/03/01 03:06:21;;;;;;;89.90;50.30;;;128.10;1817.60;;;;;;5006599;28;20038;-75
2021/03/01 03:08:49;;;;;;;85.63;49.63;;;128.10;1817.60;;;;;;5012905;28;20021;-74
2021/03/01 03:11:17;;;;;;;92.70;50.83;;;128.10;1817.60;;;;;;5014109;28;20034;-73
2021/03/01 03:13:47;;;;;;;89.63;49.83;;;128.10;1817.60;;;;;;5014008;28;20050;-74
2021/03/01 03:16:14;;;;;;;89.78;49.25;;;128.10;1817.60;;;;;;5014253;28;20033;-74
2021/03/01 03:18:42;;;;;;;82.30;46.72;;;128.10;1843.20;;;;;;5014179;28;20084;-74
2021/03/01 03:21:08;;;;;;;77.15;44.58;;;128.20;1817.60;;;;;;5013706;28;20045;-73
2021/03/01 03:23:34;;;;;;;76.22;44.15;;;128.30;1817.60;;;;;;5014127;28;20022;-74
2021/03/01 03:26:00;;;;;;;73.68;44.13;;;128.30;1817.60;;;;;;5014139;28;20025;-73
2021/03/01 03:28:26;;;;;;;82.85;43.35;;;128.30;1817.60;;;;;;5013699;28;20101;-73
2021/03/01 03:30:52;;;;;;;71.03;42.40;;;128.40;1792.00;;;;;;5014057;28;20364;-74
2021/03/01 03:33:18;;;;;;;67.40;39.78;;;128.40;1792.00;;;;;;5013757;28;20028;-75
2021/03/01 03:35:44;;;;;;;72.70;41.78;;;128.60;1792.00;;;;;;5012391;28;20496;-74
2021/03/01 03:38:24;;;;;;;71.93;39.67;;;128.60;1766.40;;;;;;5012701;28;20056;-75
2021/03/01 03:40:53;;;;;;;69.75;39.80;;;128.60;1792.00;;;;;;5012517;28;20057;-72
2021/03/01 03:43:20;;;;;;;71.70;39.22;;;128.60;1766.40;;;;;;5012445;28;20472;-76
2021/03/01 03:45:51;;;;;;;63.58;38.35;;;128.60;1766.40;;;;;;5013555;28;20065;-73
2021/03/01 03:48:20;;;;;;;64.77;39.27;;;128.70;1766.40;;;;;;5013510;28;20534;-75
2021/03/01 03:50:57;;;;;;;70.90;40.40;;;128.70;1766.40;;;;;;5013457;28;20058;-74
2021/03/01 03:53:26;;;;;;;68.13;39.83;;;128.70;1766.40;;;;;;5012260;28;20030;-73
2021/03/01 03:55:57;;;;;;;76.40;42.05;;;128.80;1766.40;;;;;;5012167;28;20124;-73
2021/03/01 03:58:29;;;;;;;71.18;40.72;;;128.70;1766.40;;;;;;5013501;28;20022;-74
2021/03/01 04:00:57;;;;;;;70.63;41.13;;;128.70;1766.40;;;;;;5012357;28;20037;-74
2021/03/01 04:03:24;;;;;;;76.93;42.75;;;128.70;1766.40;;;;;;5013467;28;20097;-73
2021/03/01 04:05:52;;;;;;;72.55;41.35;;;128.70;1766.40;;;;;;5013410;28;20468;-74
2021/03/01 04:08:20;;;;;;;70.03;40.25;;;128.70;1766.40;;;;;;5013140;28;20018;-74
2021/03/01 04:10:49;;;;;;;71.85;41.35;;;128.70;1766.40;;;;;;5013094;28;20552;-75
2021/03/01 04:13:16;;;;;;;67.65;40.47;;;128.70;1766.40;;;;;;5011364;28;20034;-74
2021/03/01 04:15:46;;;;;;;71.57;40.25;;;128.70;1740.80;;;;;;5013176;28;20476;-73
2021/03/01 04:18:25;;;;;;;70.10;42.00;;;128.70;1766.40;;;;;;5011887;28;20439;-74
2021/03/01 04:20:54;;;;;;;75.13;42.33;;;128.70;1766.40;;;;;;5013066;28;20026;-74
2021/03/01 04:23:23;;;;;;;70.38;40.00;;;128.70;1766.40;;;;;;5012879;28;20029;-73
2021/03/01 04:25:50;;;;;;;69.72;39.85;;;128.70;1766.40;;;;;;5011668;28;20017;-72
2021/03/01 04:28:19;;;;;;;70.05;40.90;;;128.60;1766.40;;;;;;5012704;28;20053;-73
2021/03/01 04:30:47;;;;;;;70.20;41.90;;;128.60;1766.40;;;;;;5012685;28;20109;-73
2021/03/01 04:33:14;;;;;;;70.43;41.38;;;128.70;1766.40;;;;;;5011560;28;20026;-76
2021/03/01 04:35:42;;;;;;;69.22;39.92;;;128.60;1766.40;;;;;;5012668;28;20499;-73
2021/03/01 04:38:08;;;;;;;72.07;41.70;;;128.60;1766.40;;;;;;5012573;28;20029;-73
2021/03/01 04:40:33;;;;;;;67.22;38.08;;;128.60;1766.40;;;;;;5012650;28;20036;-75
2021/03/01 04:43:01;;;;;;;67.15;37.65;;;128.70;1766.40;;;;;;5012569;28;20432;-73
2021/03/01 04:45:27;;;;;;;61.47;36.63;;;128.60;1766.40;;;;;;5012432;28;20384;-73
2021/03/01 04:47:53;;;;;;;64.43;37.92;;;128.60;1766.40;;;;;;5012530;28;20026;-76
2021/03/01 04:50:20;;;;;;;61.67;37.05;;;128.40;1766.40;;;;;;5011396;28;20459;-74
2021/03/01 04:52:47;;;;;;;67.15;37.88;;;128.50;1766.40;;;;;;5012202;28;20096;-75
2021/03/01 04:55:15;;;;;;;61.70;36.22;;;128.50;1766.40;;;;;;5011129;28;20034;-73
2021/03/01 04:57:42;;;;;;;65.05;37.90;;;128.40;1766.40;;;;;;5012392;28;20522;-74
2021/03/01 05:00:11;;;;;;;58.67;35.25;;;128.30;1766.40;;;;;;5012232;28;20544;-73
2021/03/01 05:02:38;;;;;;;58.35;34.67;;;128.30;1792.00;;;;;;5011123;28;20384;-75
2021/03/01 05:05:05;;;;;;;62.08;35.85;;;128.40;1792.00;;;;;;5011939;28;20041;-73
2021/03/01 05:07:32;;;;;;;64.75;35.30;;;128.30;1792.00;;;;;;5010908;28;20038;-74
2021/03/01 05:09:59;;;;;;;66.40;36.17;;;128.30;1792.00;;;;;;5011870;28;20029;-74
2021/03/01 05:12:24;;;;;;;56.92;34.75;;;128.30;1792.00;;;;;;5011764;28;20543;-74
2021/03/01 05:14:51;;;;;;;61.50;35.63;;;128.20;1792.00;;;;;;5011828;28;20140;-72
2021/03/01 05:17:17;;;;;;;61.05;35.33;;;128.20;1817.60;;;;;;5011772;28;20025;-74
2021/03/01 05:19:42;;;;;;;60.17;33.88;;;128.10;1817.60;;;;;;5011971;28;20030;-75
2021/03/01 05:22:08;;;;;;;54.33;35.58;;;128.10;1817.60;;;;;;5011752;28;20024;-75
2021/03/01 05:24:34;;;;;;;57.63;34.72;;;128.10;1817.60;;;;;;5011956;28;20026;-74
2021/03/01 05:26:59;;;;;;;56.08;35.65;;;128.00;1817.60;;;;;;5010582;28;20111;-73
2021/03/01 05:29:25;;;;;;;58.83;35.90;;;128.10;1817.60;;;;;;5011135;28;20399;-73
2021/03/01 05:31:51;;;;;;;64.97;36.83;;;128.00;1817.60;;;;;;5010498;28;20054;-75
2021/03/01 05:34:17;;;;;;;64.70;37.58;;;128.10;1817.60;;;;;;5011444;28;20448;-75
2021/03/01 05:36:43;;;;;;;64.43;38.28;;;128.00;1817.60;;;;;;5011551;28;20487;-74
2021/03/01 05:39:09;;;;;;;65.70;38.10;;;103.30;1817.60;;;;;;5011092;28;20026;-74
2021/03/01 05:41:38;;;;;;;66.63;38.60;;;103.20;1817.60;;;;;;5010111;28;20040;-75
2021/03/01 05:44:05;;;;;;;69.82;39.47;;;103.20;1843.20;;;;;;5010069;28;20030;-74
2021/03/01 05:46:34;;;;;;;73.20;41.80;;;103.20;1843.20;;;;;;5011220;28;20026;-75
2021/03/01 05:49:00;;;;;;;74.60;41.85;;;103.10;1868.80;;;;;;5010199;28;20026;-77
2021/03/01 05:51:26;;;;;;;71.18;39.35;;;103.00;1868.80;;;;;;5011755;28;20452;-74
2021/03/01 05:53:59;;;;;;;72.95;41.72;;;103.10;1868.80;;;;;;5011406;28;20037;-75
2021/03/01 05:56:25;;;;;;;70.97;40.65;;;103.20;1843.20;;;;;;5011149;28;20029;-74
2021/03/01 05:58:51;;;;;;;72.43;41.38;;;103.00;1868.80;;;;;;5011415;28;20487;-74
2021/03/01 06:01:17;;;;;;;73.30;42.53;;;103.00;1868.80;;;;;;5009879;28;20030;-75
2021/03/01 06:03:43;;;;;;;71.07;40.53;;;103.00;1868.80;;;;;;5009615;28;20030;-79
2021/03/01 06:06:11;;;;;;;74.75;42.08;;;103.00;1894.40;;;;;;5011179;28;20125;-75
2021/03/01 06:08:36;;;;;;;69.75;40.28;;;103.00;1894.40;;;;;;5010912;28;20071;-75
2021/03/01 06:11:07;;;;;;;71.72;40.35;;;103.00;1894.40;;;;;;5011257;28;20107;-75
2021/03/01 06:13:34;;;;;;;66.47;41.17;;;103.00;1868.80;;;;;;5009672;28;20131;-77
2021/03/01 06:16:01;;;;;;;103.30;58.33;;;103.10;1868.80;;;;;;5010950;28;20038;-75
2021/03/01 06:18:27;;;;;;;75.72;43.13;;;103.10;1868.80;;;;;;5009237;28;20030;-74
2021/03/01 06:20:54;;;;;;;77.15;44.42;;;103.20;1868.80;;;;;;5010989;28;20030;-74
2021/03/01 06:23:34;;;;;;;70.75;40.88;;;103.20;1868.80;;;;;;5010882;28;20052;-73
2021/03/01 06:26:27;;;;;;;73.32;42.00;;;103.30;1868.80;;;;;;5009582;28;20113;-74
2021/03/01 06:28:55;;;;;;;68.55;40.20;;;103.30;1868.80;;;;;;5010866;28;20033;-74
2021/03/01 06:31:37;;;;;;;69.22;41.05;;;128.00;1868.80;;;;;;5010811;28;20045;-75
2021/03/01 06:34:32;;;;;;;67.78;39.47;;;128.00;1868.80;;;;;;5010781;28;20025;-71
2021/03/01 06:37:03;;;;;;;69.82;40.75;;;128.00;1868.80;;;;;;5010606;28;20117;-75
2021/03/01 06:39:46;;;;;;;69.88;41.00;;;128.00;1868.80;;;;;;5010539;28;20093;-73
2021/03/01 06:44:44;;;;;;;63.70;38.83;;;128.10;1843.20;;;;;;5010696;28;20488;-71
2021/03/01 06:47:09;;;;;;;68.97;39.95;;;128.20;1843.20;;;;;;5011001;28;20538;-71
2021/03/01 06:49:37;;;;;;;68.28;40.13;;;128.20;1843.20;;;;;;5009016;28;20069;-71
2021/03/01 06:52:02;;;;;;;68.20;38.30;;;128.20;1868.80;;;;;;5010884;28;20014;-71
2021/03/01 06:54:29;;;;;;;63.33;38.33;;;128.30;1843.20;;;;;;5009493;28;20029;-70
2021/03/01 06:56:55;;;;;;;65.32;37.88;;;128.40;1843.20;;;;;;5010687;28;20034;-71
2021/03/01 06:59:21;;;;;;;64.97;36.67;;;128.40;1843.20;;;;;;5010995;28;20487;-71
2021/03/01 07:01:49;;;;;;;59.15;36.03;;;128.50;1817.60;;;;;;5010462;28;20022;-71
2021/03/01 07:04:34;;;;;;;66.43;36.63;;;128.60;1817.60;;;;;;5010552;28;20029;-71
2021/03/01 07:07:02;;;;;;;59.65;35.67;;;128.70;1817.60;;;;;;5010508;28;20018;-79
2021/03/01 07:09:34;;;;;;;63.90;35.92;;;128.70;1817.60;;;;;;5009086;28;20026;-74
2021/03/01 07:12:00;;;;;;;61.35;36.20;;;128.80;1792.00;;;;;;5010674;28;20025;-84
2021/03/01 07:14:28;;;;;;;59.47;35.92;;;128.90;1792.00;;;;;;5010189;28;20058;-71
2021/03/01 07:16:55;;;;;;;56.53;37.60;;;153.60;1792.00;;;;;;5010565;28;20357;-72
2021/03/01 07:19:32;;;;;;;61.47;34.95;;;153.70;1792.00;;;;;;5010882;28;20029;-79
2021/03/01 07:22:09;;;;;;;59.20;35.80;;;153.70;1766.40;;;;;;5010847;28;20516;-73
2021/03/01 07:24:35;;;;;;;59.30;35.13;;;153.80;1792.00;;;;;;5010612;28;20465;-77
2021/03/01 07:27:04;;;;;;;58.65;35.28;;;153.70;1792.00;;;;;;5010824;28;20018;-73
2021/03/01 07:29:32;;;;;;;55.17;34.38;;;153.70;1792.00;;;;;;5007183;28;20053;-80
2021/03/01 07:32:00;;;;;;;59.03;34.60;;;153.80;1766.40;;;;;;5009095;28;20010;-77
2021/03/01 07:34:26;;;;;;;52.78;33.55;;;153.90;1766.40;;;;;;5009138;28;20032;-79
2021/03/01 07:36:54;;;;;;;53.47;32.47;;;153.90;1766.40;;;;;;5011046;28;20384;-79
2021/03/01 07:39:20;;;;;;;52.05;32.47;;;153.90;1766.40;;;;;;5012955;28;20048;-73
2021/03/01 07:41:47;;;;;;;61.00;31.92;;;153.80;1766.40;;;;;;5013200;28;20069;-73
2021/03/01 07:44:14;;;;;;;52.90;31.17;;;153.90;1766.40;;;;;;5008817;28;20030;-73
2021/03/01 07:46:42;;;;;;;51.20;31.35;;;153.90;1766.40;;;;;;5012716;28;20049;-72
2021/03/01 07:49:12;;;;;;;52.80;31.95;;;153.90;1766.40;;;;;;5012460;28;20038;-76
2021/03/01 07:51:41;;;;;;;58.45;34.40;;;153.90;1766.40;;;;;;5010186;28;20014;-74
2021/03/01 07:54:08;;;;;;;51.92;34.05;;;154.00;1766.40;;;;;;5012074;28;20030;-85
2021/03/01 07:56:39;;;;;;;52.10;32.42;;;154.10;1766.40;;;;;;5009939;28;20032;-81
2021/03/01 07:59:07;;;;;;;54.15;32.50;;;154.20;1766.40;;;;;;5011098;28;20038;-78
2021/03/01 08:01:33;;;;;;;55.90;35.95;;;154.30;1740.80;;;;;;5010836;28;20018;-85
2021/03/01 08:04:00;;;;;;;51.60;33.22;;;154.30;1740.80;;;;;;5013022;28;20400;-83
2021/03/01 08:06:57;;;;;;;57.35;33.40;;;154.40;1740.80;;;;;;5012359;28;20014;-84
2021/03/01 08:09:41;;;;;;;58.30;33.65;;;154.40;1740.80;;;;;;5011005;28;20026;-74
2021/03/01 08:12:07;;;;;;;45.47;28.08;;;154.40;1715.20;;;;;;5018652;28;20105;-76
2021/03/01 08:14:51;;;;;;;45.70;28.95;;;154.30;1715.20;;;;;;5011838;28;20113;-75
2021/03/01 08:17:26;;;;;;;71.03;39.53;;;154.50;1689.60;;;;;;5009936;28;20487;-75
2021/03/01 08:19:53;;;;;;;49.67;29.20;;;179.20;1715.20;;;;;;5012418;28;20053;-77
2021/03/01 08:22:18;;;;;;;53.17;31.40;;;179.20;1689.60;;;;;;5010869;28;20092;-83
2021/03/01 08:24:48;;;;;;;47.08;29.67;;;179.40;1689.60;;;;;;5010586;28;20464;-74
2021/03/01 08:27:26;;;;;;;45.70;28.50;;;179.40;1664.00;;;;;;5015872;28;20051;-75
2021/03/01 08:30:23;;;;;;;46.08;27.77;;;179.30;1664.00;;;;;;5011875;28;20430;-76
2021/03/01 08:33:22;;;;;;;44.58;26.73;;;179.40;1664.00;;;;;;5011248;28;20109;-75
2021/03/01 08:35:53;;;;;;;45.97;27.60;;;179.50;1638.40;;;;;;5009718;28;20041;-74
2021/03/01 08:38:41;;;;;;;48.05;28.45;;;179.60;1664.00;;;;;;5009890;28;20026;-74
2021/03/01 08:41:09;;;;;;;44.78;25.80;;;179.60;1638.40;;;;;;5010682;28;20026;-74
2021/03/01 08:43:38;;;;;;;47.13;25.30;;;179.70;1638.40;;;;;;5009999;28;20053;-75
2021/03/01 08:46:16;;;;;;;37.75;25.10;;;179.80;1638.40;;;;;;5011460;28;20057;-76
2021/03/01 08:48:47;;;;;;;38.63;23.08;;;179.90;1612.80;;;;;;5009511;28;20495;-76
2021/03/01 08:51:15;;;;;;;41.70;25.35;;;179.90;1612.80;;;;;;5010039;28;20018;-75
2021/03/01 08:53:40;;;;;;;36.80;22.30;;;180.10;1612.80;;;;;;5011589;28;20053;-75
2021/03/01 08:56:17;;;;;;;34.28;22.80;;;180.10;1587.20;;;;;;5010685;28;20127;-75
2021/03/01 08:58:43;;;;;;;35.00;22.40;;;180.10;1612.80;;;;;;5008126;28;20018;-74
2021/03/01 09:01:08;;;;;;;40.17;24.33;;;204.90;1587.20;;;;;;5011244;28;20088;-75
2021/03/01 09:03:36;;;;;;;32.35;21.52;;;205.00;1587.20;;;;;;5010885;28;20026;-75
2021/03/01 09:06:10;;;;;;;41.72;23.73;;;205.00;1561.60;;;;;;5010994;28;20026;-75
2021/03/01 09:08:42;;;;;;;45.53;28.05;;;205.00;1587.20;;;;;;5008527;28;20045;-75
2021/03/01 09:11:21;;;;;;;34.95;23.70;;;205.20;1561.60;;;;;;5010919;28;20029;-75
2021/03/01 09:13:52;;;;;;;36.90;23.45;;;205.30;1561.60;;;;;;5009654;28;20053;-76
2021/03/01 09:16:24;;;;;;;36.67;24.80;;;205.40;1561.60;;;;;;5006711;28;20034;-76
2021/03/01 09:18:51;;;;;;;48.70;27.35;;;205.40;1536.00;;;;;;5011031;28;20026;-74
2021/03/01 09:21:19;;;;;;;47.75;25.58;;;205.50;1536.00;;;;;;5010400;28;20022;-75
2021/03/01 09:23:47;;;;;;;36.10;22.42;;;205.50;1510.40;;;;;;5010914;28;20025;-74
2021/03/01 09:26:26;;;;;;;42.50;23.13;;;205.60;1510.40;;;;;;5009761;28;20164;-76
2021/03/01 09:28:56;;;;;;;37.10;21.95;;;205.70;1510.40;;;;;;5008396;28;20038;-78
2021/03/01 09:31:23;;;;;;;55.50;33.70;;;205.40;1510.40;;;;;;5011823;28;20076;-75
2021/03/01 09:33:50;;;;;;;34.20;20.88;;;230.50;1510.40;;;;;;5011748;28;20018;-75
2021/03/01 09:36:16;;;;;;;37.00;22.15;;;230.50;1484.80;;;;;;5010148;28;20072;-76
2021/03/01 09:38:42;;;;;;;33.20;21.27;;;230.50;1484.80;;;;;;5011877;28;20029;-75
2021/03/01 09:41:10;;;;;;;51.70;31.08;;;230.60;1484.80;;;;;;5011192;28;20029;-75
2021/03/01 09:43:37;;;;;;;37.15;22.60;;;230.60;1484.80;;;;;;5009619;28;20044;-77
2021/03/01 09:46:04;;;;;;;63.45;32.22;;;230.70;1484.80;;;;;;5011141;28;20030;-76
2021/03/01 09:48:35;;;;;;;37.13;21.95;;;230.80;1484.80;;;;;;5009800;28;20038;-75
2021/03/01 09:51:03;;;;;;;29.83;19.23;;;230.90;1459.20;;;;;;5010165;28;20022;-75
2021/03/01 09:53:29;;;;;;;51.30;26.10;;;231.00;1433.60;;;;;;5009973;28;20030;-74
2021/03/01 09:55:55;;;;;;;31.05;19.63;;;231.10;1433.60;;;;;;5011153;28;20406;-76
2021/03/01 09:58:47;;;;;;;27.25;18.48;;;231.20;1433.60;;;;;;5009689;28;20361;-74
2021/03/01 10:01:17;;;;;;;22.85;16.77;;;231.30;1433.60;;;;;;5009348;28;20038;-75
2021/03/01 10:03:44;;;;;;;24.50;15.00;;;231.30;1433.60;;;;;;5011207;28;20037;-76
2021/03/01 10:06:11;;;;;;;18.88;13.93;;;256.00;1382.40;;;;;;5011204;28;20461;-74
2021/03/01 10:08:38;;;;;;;24.10;15.23;;;256.00;1382.40;;;;;;5011155;28;20021;-74
2021/03/01 10:11:05;;;;;;;21.95;15.35;;;256.20;1382.40;;;;;;5010461;28;20056;-75
2021/03/01 10:13:34;;;;;;;23.25;15.30;;;256.30;1382.40;;;;;;5010938;28;20042;-75
2021/03/01 10:16:01;;;;;;;24.23;15.45;;;256.30;1382.40;;;;;;5010989;28;20057;-74
2021/03/01 10:18:29;;;;;;;24.10;16.98;;;256.50;1382.40;;;;;;5009839;28;20026;-75
2021/03/01 10:20:59;;;;;;;28.30;17.48;;;256.50;1356.80;;;;;;5010455;28;20034;-76
2021/03/01 10:23:43;;;;;;;24.20;14.90;;;256.60;1408.00;;;;;;5009179;28;20034;-74
2021/03/01 10:26:14;;;;;;;24.40;15.57;;;256.70;1331.20;;;;;;5009386;28;20356;-75
2021/03/01 10:28:40;;;;;;;;;;;256.70;1331.20;;;;;;5011706;28;20029;-80
2021/03/01 10:31:08;;;;;;;20.70;13.60;;;256.80;1331.20;;;;;;5010742;28;19905;-75
2021/03/01 10:34:00;;;;;;;23.98;15.10;;;256.80;1331.20;;;;;;5011319;28;20022;-82
2021/03/01 10:36:45;;;;;;;23.05;13.75;;;256.90;1382.40;;;;;;5009739;28;20439;-85
2021/03/01 10:39:29;;;;;;;22.42;14.95;;;281.70;1382.40;;;;;;5010927;28;20022;-80
2021/03/01 10:41:58;;;;;;;28.95;17.45;;;281.90;1356.80;;;;;;5009353;28;20034;-80
2021/03/01 10:44:35;;;;;;;25.20;16.02;;;282.00;1356.80;;;;;;5011214;28;20045;-80
2021/03/01 10:47:22;;;;;;;36.90;23.30;;;282.00;1331.20;;;;;;5010921;28;20033;-80
2021/03/01 10:49:53;;;;;;;32.95;21.73;;;282.00;1331.20;;;;;;5010566;28;20022;-82
2021/03/01 10:52:21;;;;;;;31.52;23.40;;;282.10;1331.20;;;;;;5011104;28;20022;-81
2021/03/01 10:54:47;;;;;;;26.23;18.40;;;282.10;1305.60;;;;;;5010550;28;20037;-82
2021/03/01 10:57:13;;;;;;;36.72;21.98;;;282.20;1331.20;;;;;;5010828;28;20398;-73
2021/03/01 10:59:39;;;;;;;56.08;31.50;;;282.20;1305.60;;;;;;5004317;28;20140;-75
2021/03/01 11:02:06;;;;;;;27.58;17.85;;;282.20;1280.00;;;;;;5009125;28;20026;-75
2021/03/01 11:04:33;;;;;;;27.05;17.13;;;282.30;1331.20;;;;;;5009842;28;20081;-74
2021/03/01 11:06:59;;;;;;;18.73;13.35;;;282.40;1280.00;;;;;;5007918;28;20026;-75
2021/03/01 11:09:25;;;;;;;26.67;17.25;;;282.40;1305.60;;;;;;5009133;28;20032;-75
2021/03/01 11:11:52;;;;;;;32.05;20.45;;;282.50;1280.00;;;;;;5013037;28;20010;-74
2021/03/01 11:14:20;;;;;;;24.40;16.08;;;282.50;1280.00;;;;;;5012566;28;20504;-74
2021/03/01 11:16:46;;;;;;;50.47;28.30;;;307.40;1280.00;;;;;;5013072;28;20049;-73
2021/03/01 11:19:13;;;;;;;37.42;20.85;;;282.50;1228.80;;;;;;5013346;28;20026;-75
2021/03/01 11:21:39;;;;;;;36.45;23.05;;;307.20;1254.40;;;;;;5012707;28;20021;-75
2021/03/01 11:24:09;;;;;;;28.10;17.83;;;307.20;1254.40;;;;;;5012974;28;20144;-75
2021/03/01 11:26:35;;;;;;;20.30;12.57;;;307.20;1254.40;;;;;;5013196;28;20426;-75
2021/03/01 11:29:01;;;;;;;19.75;13.52;;;307.30;1254.40;;;;;;5012356;28;20468;-75
2021/03/01 11:31:31;;;;;;;22.92;15.32;;;307.40;1228.80;;;;;;5012875;28;20030;-73
2021/03/01 11:33:57;;;;;;;23.85;15.68;;;307.40;1228.80;;;;;;5013004;28;20014;-75
2021/03/01 11:36:23;;;;;;;30.63;21.10;;;307.50;1203.20;;;;;;5011311;28;20053;-75
2021/03/01 11:38:49;;;;;;;17.42;11.75;;;307.40;1177.60;;;;;;5010136;28;20014;-75
2021/03/01 11:41:15;;;;;;;15.73;11.90;;;307.50;1177.60;;;;;;5011545;28;20531;-75
2021/03/01 11:43:44;;;;;;;15.15;10.52;;;307.50;1152.00;;;;;;5012716;28;20026;-75
2021/03/01 11:46:11;;;;;;;15.88;10.98;;;307.60;1203.20;;;;;;5010390;28;20366;-75
2021/03/01 11:48:37;;;;;;;18.52;12.73;;;307.70;1152.00;;;;;;5012496;28;20447;-74
2021/03/01 11:51:04;;;;;;;16.33;12.52;;;307.60;1152.00;;;;;;5011256;28;20018;-75
2021/03/01 11:53:29;;;;;;;31.80;19.85;;;307.50;1177.60;;;;;;5016858;28;20018;-75
2021/03/01 11:55:55;;;;;;;22.30;14.55;;;307.70;1203.20;;;;;;5012335;28;20068;-75
2021/03/01 11:58:21;;;;;;;25.25;16.65;;;307.80;1152.00;;;;;;5010868;28;20053;-74
2021/03/01 12:00:46;;;;;;;15.10;11.02;;;307.90;1177.60;;;;;;5011834;28;20036;-75
2021/03/01 12:03:12;;;;;;;24.63;15.38;;;307.90;1152.00;;;;;;5012488;28;20014;-75
2021/03/01 12:05:40;;;;;;;18.13;13.00;;;307.90;1152.00;;;;;;5010414;28;20440;-75
2021/03/01 12:08:07;;;;;;;20.50;12.18;;;308.10;1152.00;;;;;;5011983;28;20109;-74
2021/03/01 12:10:35;;;;;;;20.38;13.02;;;308.10;1152.00;;;;;;5011137;28;20029;-76